»·PEaware :: AAL225 KMRY-KSNA

AAL225 :: KMRY-KSNA

FLIGHT INFORMATION

Flight Status: Arrived
Operator:
American Airlines
More flights by this operator :: More flights under this callsign
Pilot: Michael R. (16974)
Aircraft: BOEING 737-800
(B738)
More flights by this aircraft type
Origin: KMRY Monterey Peninsula
United States
Destination: KSNA John Wayne-Orange Co
United States
More flights between these airports :: More routes between these airports
Route: +MRY4 BSR MCKEY DAISY BENET SXC
File this flight plan on PilotEdge
Remarks:
Altitude:
(Current/Filed)
29,000ft
Speed:
(Current/Filed)
425kts
Departed: 15-Apr-18 01:01 PM
Arrived: 15-Apr-18 02:00 PM
Distance/Time
Traveled:
262nm/0:59
Distance/Time
To Go:
Arrived

Flight Plot

Page will automatically refresh every two minutes.

Flight plan parsing failed; only flown route is shown


Map Options




Map Legend


Flown Route
Filed Route
Departure Airport
Arrival Airport
Navaid (VOR, NDB)
Fix

Horizontal Profiles

Position Reports

Time Latitude Longitude Heading Altitude Ground
Speed
15-Apr-18 12:31 36.587405 -121.849743 232 263ft 0kts
15-Apr-18 12:32 36.587405 -121.849743 232 263ft 0kts
15-Apr-18 12:33 36.587405 -121.849743 232 263ft 0kts
15-Apr-18 12:34 36.587405 -121.849743 232 263ft 0kts
15-Apr-18 12:35 36.587405 -121.849743 232 263ft 0kts
15-Apr-18 12:36 36.587405 -121.849743 232 263ft 0kts
15-Apr-18 12:37 36.587405 -121.849743 232 263ft 0kts
15-Apr-18 12:38 36.587405 -121.849743 232 263ft 0kts
15-Apr-18 12:39 36.587405 -121.849743 232 263ft 0kts
15-Apr-18 12:40 36.587405 -121.849743 232 263ft 0kts
15-Apr-18 12:41 36.587405 -121.849743 232 263ft 0kts
15-Apr-18 12:42 36.587405 -121.849743 232 263ft 0kts
15-Apr-18 12:43 36.587405 -121.849743 232 263ft 0kts
15-Apr-18 12:44 36.587405 -121.849743 232 263ft 0kts
15-Apr-18 12:45 36.587405 -121.849743 232 263ft 0kts
15-Apr-18 12:46 36.587405 -121.849743 232 263ft 0kts
15-Apr-18 12:47 36.587405 -121.849743 232 263ft 0kts
15-Apr-18 12:48 36.587405 -121.849743 232 263ft 0kts
15-Apr-18 12:49 36.587405 -121.849743 232 263ft 0kts
15-Apr-18 12:50 36.587405 -121.849743 232 263ft 0kts
15-Apr-18 12:51 36.587405 -121.849743 232 263ft 0kts
15-Apr-18 12:52 36.587583 -121.849512 199 263ft 2kts
15-Apr-18 12:53 36.587972 -121.849754 112 263ft 0kts
15-Apr-18 12:54 36.587973 -121.849756 112 263ft 0kts
15-Apr-18 12:55 36.587923 -121.849604 111 263ft 4kts
15-Apr-18 12:56 36.586250 -121.844985 112 263ft 18kts
15-Apr-18 12:57 36.584116 -121.838669 112 263ft 20kts
15-Apr-18 12:58 36.582897 -121.834970 101 263ft 0kts
15-Apr-18 12:59 36.582872 -121.834187 78 262ft 6kts
15-Apr-18 13:00 36.584358 -121.836658 292 263ft 59kts
15-Apr-18 13:01 36.598970 -121.882204 288 1739ft 179kts
15-Apr-18 13:02 36.647818 -121.921190 336 3893ft 239kts
15-Apr-18 13:03 36.715451 -121.946531 352 6508ft 282kts
15-Apr-18 13:04 36.777494 -121.887957 77 9435ft 314kts
15-Apr-18 13:05 36.738307 -121.806170 169 11688ft 308kts
15-Apr-18 13:06 36.653940 -121.780295 173 14564ft 320kts
15-Apr-18 13:07 36.565888 -121.754405 174 17207ft 332kts
15-Apr-18 13:08 36.474439 -121.727639 174 19456ft 347kts
15-Apr-18 13:09 36.379235 -121.699817 175 21528ft 360kts
15-Apr-18 13:10 36.280440 -121.671018 175 23399ft 372kts
15-Apr-18 13:11 36.178424 -121.639725 166 25175ft 391kts
15-Apr-18 13:12 36.083448 -121.565920 156 26811ft 411kts
15-Apr-18 13:13 35.987646 -121.488127 157 28320ft 417kts
15-Apr-18 13:14 35.898774 -121.416461 157 29041ft 429kts
15-Apr-18 13:15 35.799424 -121.336701 157 29044ft 453kts
15-Apr-18 13:16 35.692702 -121.251029 156 29034ft 464kts
15-Apr-18 13:17 35.584715 -121.164295 156 29034ft 465kts
15-Apr-18 13:18 35.476927 -121.077842 156 29035ft 465kts
15-Apr-18 13:19 35.368861 -120.992545 157 29063ft 464kts
15-Apr-18 13:20 35.262525 -120.909439 157 29063ft 464kts
15-Apr-18 13:21 35.159156 -120.829087 156 29063ft 464kts
15-Apr-18 13:22 35.050140 -120.744447 156 29064ft 464kts
15-Apr-18 13:23 34.941570 -120.660173 156 29091ft 464kts
15-Apr-18 13:24 34.834657 -120.577162 156 29103ft 464kts
15-Apr-18 13:25 34.726104 -120.492857 155 29117ft 463kts
15-Apr-18 13:26 34.617780 -120.408685 155 29027ft 464kts
15-Apr-18 13:27 34.511412 -120.326015 156 28190ft 464kts
15-Apr-18 13:28 34.403631 -120.242238 155 27419ft 466kts
15-Apr-18 13:29 34.294471 -120.157357 155 26696ft 468kts
15-Apr-18 13:30 34.210212 -120.039046 128 25638ft 446kts
15-Apr-18 13:31 34.147214 -119.913798 128 24427ft 431kts
15-Apr-18 13:32 34.085100 -119.791377 128 24055ft 436kts
15-Apr-18 13:33 34.020696 -119.665597 127 24046ft 440kts
15-Apr-18 13:34 33.956380 -119.540488 127 24065ft 440kts
15-Apr-18 13:35 33.892257 -119.415870 127 24079ft 440kts
15-Apr-18 13:36 33.829773 -119.294283 127 23346ft 439kts
15-Apr-18 13:37 33.768283 -119.174261 127 21609ft 412kts
15-Apr-18 13:38 33.709114 -119.058855 126 19906ft 400kts
15-Apr-18 13:39 33.651857 -118.946993 126 18011ft 389kts
15-Apr-18 13:40 33.596149 -118.838040 125 16105ft 377kts
15-Apr-18 13:41 33.544003 -118.738778 125 14062ft 364kts
15-Apr-18 13:42 33.524506 -118.629413 82 12161ft 357kts
15-Apr-18 13:43 33.537759 -118.513692 81 10470ft 341kts
15-Apr-18 13:44 33.550079 -118.405001 81 8761ft 319kts
15-Apr-18 13:45 33.561302 -118.306388 82 7127ft 305kts
15-Apr-18 13:46 33.572416 -118.207448 82 5425ft 295kts
15-Apr-18 13:47 33.582569 -118.112748 82 4986ft 282kts
15-Apr-18 13:48 33.597274 -118.026887 45 5001ft 278kts
15-Apr-18 13:49 33.649459 -117.981784 29 4999ft 278kts
15-Apr-18 13:50 33.715445 -117.933759 30 5001ft 280kts
15-Apr-18 13:51 33.781330 -117.883883 30 4981ft 281kts
15-Apr-18 13:52 33.846237 -117.835184 30 4759ft 264kts
15-Apr-18 13:53 33.895366 -117.773700 115 4027ft 220kts
15-Apr-18 13:54 33.852396 -117.746891 218 4038ft 200kts
15-Apr-18 13:55 33.814457 -117.779050 212 3937ft 201kts
15-Apr-18 13:56 33.768163 -117.810203 208 2758ft 191kts
15-Apr-18 13:57 33.721659 -117.840176 205 1202ft 180kts
15-Apr-18 13:58 33.681994 -117.864780 207 83ft 135kts
15-Apr-18 13:59 33.669754 -117.872518 212 63ft 22kts
15-Apr-18 14:00 33.668485 -117.874689 341 64ft 0kts

Navigation Log

Ident Type
Flight plan parsing failed, navigation log unavailable